Terminal Aerodrome Forecast
Issued by NWS

Home | Current Version | Previous Version | Text Only | Print | Product List | Glossary On
Versions: 1 2 3 4 5 6 7 8 9 10 11 12 13 14 15 16
000
FTUS46 KMTR 211720
TAFSTS
TAF
KSTS 211720Z 2118/2218 VRB03KT P6SM SKC
     FM212000 17010KT P6SM FEW100
     FM220400 16004KT P6SM FEW016 FEW100
     FM220800 00000KT P6SM BKN014
     FM221600 VRB03KT P6SM FEW016=

USA.gov is the U.S. government's official web portal to all federal, state and local government web resources and services.